Data for 10/21/2015

Time Sea-Level Adjusted Pressure Absolute Pressure Temperature Relative Humidity Dew Point   
(mb) (inHg) (mb) (inHg) (C) (F) (%) (C) (F)
00:05 1026 30.3 855 25.25 4.4 39.9 84 1.9 35.5
00:10 1026 30.3 855 25.25 4 39.2 85 1.8 35.3
00:15 1026 30.3 855 25.25 3.9 39 86 1.8 35.2
00:20 1026 30.3 855 25.25 3.8 38.8 87 1.8 35.2
00:25 1026 30.3 855 25.25 3.6 38.5 86 1.6 34.8
00:30 1026 30.3 855 25.25 3.5 38.2 87 1.6 34.8
00:35 1026 30.3 855 25.25 3.6 38.5 86 1.4 34.6
00:40 1026 30.3 855 25.25 3.7 38.6 86 1.5 34.7
00:45 1026 30.3 855 25.25 3.8 38.8 85 1.5 34.7
00:50 1026 30.3 855 25.25 3.6 38.6 86 1.5 34.8
00:55 1026 30.3 855 25.25 3.5 38.3 87 1.5 34.8
01:00 1026 30.3 855 25.25 3.4 38.1 89 1.7 35
01:05 1026 30.3 855 25.25 3.6 38.5 86 1.6 34.8
01:10 1026 30.3 855 25.25 3.8 38.9 85 1.6 34.9
01:15 1026 30.3 855 25.25 3.9 39 85 1.5 34.8
01:20 1026 30.3 855 25.25 3.8 38.8 85 1.5 34.7
01:25 1026 30.3 855 25.25 3.6 38.4 86 1.4 34.5
01:30 1026 30.3 855 25.25 3.5 38.2 87 1.4 34.6
01:35 1026 30.3 855 25.25 3.6 38.5 86 1.4 34.5
01:40 1026 30.3 855 25.25 3.5 38.4 86 1.4 34.5
01:45 1026 30.3 855 25.25 3.3 38 87 1.3 34.4
01:50 1026 30.3 855 25.25 3.3 37.9 86 1.2 34.2
01:55 1026 30.3 855 25.25 3.5 38.4 85 1.3 34.3
02:00 1026 30.3 855 25.25 3.6 38.5 85 1.4 34.5
02:05 1026 30.3 855 25.25 3.6 38.6 85 1.3 34.4
02:10 1026 30.3 855 25.25 3.5 38.2 86 1.3 34.3
02:15 1026 30.3 855 25.25 3.3 37.9 86 1.2 34.2
02:20 1026 30.3 855 25.25 3.1 37.6 87 1.1 34.1
02:25 1026 30.3 855 25.25 3.2 37.7 86 1.1 33.9
02:30 1026 30.3 855 25.25 3.1 37.7 87 1.1 34.1
02:35 1026 30.3 855 25.25 3.2 37.7 87 1.2 34.2
02:40 1026 30.3 855 25.25 3.3 37.9 86 1.1 33.9
02:45 1026 30.3 855 25.25 2.9 37.2 87 1 33.7
02:50 1026 30.3 855 25.25 2.8 37.1 89 1.3 34.3
02:55 1026 30.3 855 25.25 3.3 37.9 88 1.4 34.5
03:00 1026 30.3 855 25.25 3.6 38.5 86 1.5 34.6
03:05 1026 30.3 855 25.25 3.4 38.1 87 1.4 34.5
03:10 1026 30.3 855 25.25 3.2 37.8 87 1.3 34.4
03:15 1026 30.3 855 25.25 3.1 37.5 88 1.2 34.2
03:20 1026 30.3 855 25.25 3 37.4 87 1.1 34
03:25 1026 30.3 855 25.25 3.2 37.8 86 1 33.8
03:30 1026 30.3 855 25.25 3 37.4 86 1 33.7
03:35 1026 30.3 855 25.25 2.8 37.1 87 0.9 33.7
03:40 1026 30.3 855 25.25 2.9 37.3 87 1 33.7
03:45 1026 30.3 855 25.25 3.1 37.6 87 1.1 34
03:50 1026 30.3 855 25.25 3.2 37.8 86 1.1 34
03:55 1026 30.3 855 25.25 3.5 38.3 85 1.2 34.2
04:00 1026 30.3 855 25.25 3.6 38.4 85 1.3 34.4
04:05 1026 30.3 855 25.25 3.7 38.6 85 1.3 34.4
04:10 1026 30.3 855 25.25 3.5 38.3 85 1.2 34.1
04:15 1026 30.3 855 25.25 3.4 38.1 85 1 33.8
04:20 1026 30.3 855 25.25 3.1 37.6 86 1 33.7
04:25 1026 30.3 855 25.25 3.1 37.5 86 1 33.7
04:30 1026 30.3 855 25.25 2.9 37.3 86 0.9 33.6
04:35 1026 30.3 855 25.25 2.7 36.9 86 0.6 33.1
04:40 1026 30.3 855 25.25 2.2 36 88 0.4 32.7
04:45 1026 30.3 855 25.25 1.8 35.3 89 0.3 32.5
04:50 1026 30.3 855 25.25 1.9 35.4 90 0.4 32.7
04:55 1026 30.3 855 25.25 2.3 36.1 89 0.7 33.3
05:00 1026 30.3 855 25.25 2.6 36.7 88 0.8 33.5
05:05 1026 30.3 855 25.25 2.9 37.3 86 0.8 33.5
05:10 1026 30.3 855 25.25 3.1 37.5 85 0.9 33.6
05:15 1026 30.3 855 25.25 3.1 37.5 85 0.8 33.5
05:20 1026 30.3 855 25.25 2.8 37.1 86 0.7 33.3
05:25 1026 30.3 855 25.25 2.6 36.6 87 0.6 33
05:30 1026 30.3 855 25.25 2.5 36.4 87 0.5 33
05:35 1026 30.3 855 25.25 2.5 36.5 87 0.6 33
05:40 1026 30.3 855 25.25 2.4 36.3 88 0.7 33.2
05:45 1026 30.3 855 25.25 2.3 36.2 88 0.6 33
05:50 1026 30.3 855 25.25 2.2 36 88 0.5 32.9
05:55 1026 30.3 855 25.25 2.2 36 89 0.6 33
06:00 1026 30.3 855 25.25 2.3 36.1 88 0.5 33
06:05 1025 30.27 855 25.25 2.3 36.1 88 0.5 32.9
06:10 1025 30.27 855 25.25 2 35.7 88 0.2 32.4
06:15 1025 30.27 855 25.25 1.8 35.2 89 0.1 32.3
06:20 1025 30.27 855 25.25 1.8 35.2 89 0.1 32.1
06:25 1025 30.27 855 25.25 1.9 35.3 88 0.1 32.3
06:30 1025 30.27 855 25.25 1.9 35.5 88 0.2 32.4
06:35 1025 30.27 855 25.25 2 35.6 88 0.2 32.4
06:40 1025 30.27 855 25.25 2.1 35.7 88 0.3 32.6
06:45 1025 30.27 855 25.25 1.9 35.4 89 0.2 32.4
06:50 1026 30.3 855 25.25 1.9 35.5 90 0.5 32.9
06:55 1026 30.3 855 25.25 2.4 36.3 89 0.8 33.4
07:00 1026 30.3 855 25.25 2.6 36.7 87 0.7 33.2
07:05 1026 30.3 855 25.25 2.7 36.8 86 0.6 33.1
07:10 1026 30.3 855 25.25 2.8 37.1 85 0.6 33
07:15 1026 30.3 855 25.25 3.1 37.6 83 0.5 32.9
07:20 1025 30.27 855 25.25 3.2 37.8 83 0.7 33.2
07:25 1025 30.27 855 25.25 3.2 37.8 83 0.6 33.1
07:30 1025 30.27 855 25.25 3.3 38 82 0.5 32.9
07:35 1026 30.3 855 25.25 3.2 37.8 83 0.5 33
07:40 1026 30.3 855 25.25 3.3 37.9 82 0.5 32.9
07:45 1025 30.27 855 25.25 3.4 38 82 0.5 32.9
07:50 1025 30.27 855 25.25 3.6 38.5 79 0.4 32.7
07:55 1025 30.27 855 25.25 3.7 38.7 79 0.4 32.8
08:00 1025 30.27 855 25.25 3.7 38.7 80 0.6 33.1
08:05 1025 30.27 855 25.25 4 39.1 78 0.6 33
08:10 1025 30.27 855 25.25 4.3 39.8 77 0.7 33.3
08:15 1026 30.3 855 25.25 4.7 40.5 76 0.9 33.6
08:20 1026 30.3 855 25.25 5.1 41.2 74 0.9 33.5
08:25 1026 30.3 855 25.25 5.3 41.5 74 1 33.8
08:30 1025 30.27 855 25.25 5.7 42.2 73 1.2 34.2
08:35 1025 30.27 855 25.25 5.8 42.4 72 1.2 34.1
08:40 1025 30.27 855 25.25 6.5 43.7 70 1.5 34.7
08:45 1025 30.27 855 25.25 6.7 44.1 70 1.6 34.8
08:50 1026 30.3 855 25.25 7.1 44.7 68 1.6 35
08:55 1026 30.3 855 25.25 7.1 44.9 67 1.5 34.6
09:00 1026 30.3 855 25.25 7.1 44.7 68 1.5 34.8
09:05 1026 30.3 855 25.25 7.4 45.3 69 2.2 35.9
09:10 1026 30.3 855 25.25 7.4 45.4 67 1.7 35.1
09:15 1025 30.27 855 25.25 7.7 45.8 67 2 35.5
09:20 1025 30.27 855 25.25 8.1 46.6 67 2.3 36.1
09:25 1025 30.27 855 25.25 8.3 46.9 66 2.2 36
09:30 1025 30.27 855 25.25 8.1 46.5 66 2.2 36
09:35 1025 30.27 854 25.22 8.3 47 66 2.4 36.4
09:40 1025 30.27 854 25.22 8.4 47.1 66 2.3 36.2
09:45 1025 30.27 854 25.22 8 46.4 66 2.1 35.8
09:50 1025 30.27 854 25.22 8.3 47 65 2.2 36
09:55 1025 30.27 854 25.22 9.2 48.6 62 2.3 36.1
10:00 1025 30.27 854 25.22 8.4 47 68 2.8 37
10:05 1025 30.27 854 25.22 8 46.4 66 2 35.6
10:10 1025 30.27 854 25.22 8.6 47.6 66 2.6 36.6
10:15 1025 30.27 854 25.22 9.3 48.8 67 3.4 38.2
10:20 1025 30.27 854 25.22 9.2 48.6 63 2.7 36.9
10:25 1025 30.27 854 25.22 9.3 48.7 64 2.9 37.2
10:30 1025 30.27 854 25.22 9.4 48.9 65 3.1 37.5
10:35 1025 30.27 854 25.22 9.9 49.9 60 2.6 36.6
10:40 1025 30.27 854 25.22 9.4 49 64 3 37.5
10:45 1025 30.27 854 25.22 9.3 48.8 63 2.6 36.7
10:50 1025 30.27 854 25.22 9.7 49.4 62 2.8 37
10:55 1025 30.27 854 25.22 10.2 50.4 60 2.8 37.1
11:00 1025 30.27 854 25.22 9.6 49.3 63 2.8 37.1
11:05 1025 30.27 854 25.22 10.2 50.3 58 2.4 36.3
11:10 1025 30.27 854 25.22 10.4 50.7 59 2.8 37.1
11:15 1025 30.27 854 25.22 10.7 51.3 58 3 37.3
11:20 1025 30.27 854 25.22 11.2 52.2 56 2.9 37.2
11:25 1025 30.27 854 25.22 11.5 52.7 54 2.6 36.7
11:30 1025 30.27 854 25.22 11.1 52 56 2.8 37
11:35 1025 30.27 854 25.22 10.4 50.7 59 2.9 37.1
11:40 1024 30.24 854 25.22 10.6 51.1 57 2.5 36.4
11:45 1024 30.24 854 25.22 11.6 52.8 53 2.4 36.3
11:50 1024 30.24 854 25.22 10.9 51.7 56 2.6 36.7
11:55 1024 30.24 853 25.19 11.3 52.3 54 2.3 36.1
12:00 1024 30.24 853 25.19 12 53.7 51 2.4 36.3
12:05 1024 30.24 853 25.19 11.9 53.3 54 2.9 37.3
12:10 1024 30.24 853 25.19 12.1 53.8 48 1.6 34.9
12:15 1024 30.24 853 25.19 12.5 54.4 50 2.4 36.3
12:20 1024 30.24 853 25.19 12.5 54.5 49 2.1 35.7
12:25 1024 30.24 853 25.19 12 53.7 51 2.3 36.2
12:30 1024 30.24 853 25.19 13 55.4 49 2.5 36.4
12:35 1024 30.24 853 25.19 13.3 55.9 47 2.2 35.9
12:40 1024 30.24 853 25.19 13 55.5 47 2.1 35.8
12:45 1024 30.24 853 25.19 13.2 55.7 48 2.6 36.7
12:50 1024 30.24 853 25.19 13.5 56.4 46 2.1 35.8
12:55 1024 30.24 853 25.19 13.5 56.3 48 2.8 37.1
13:00 1024 30.24 853 25.19 12.6 54.7 47 1.6 34.9
13:05 1024 30.24 853 25.19 13.4 56.1 45 1.7 35.1
13:10 1023 30.21 853 25.19 13.7 56.7 44 1.6 34.9
13:15 1023 30.21 853 25.19 14.2 57.5 43 1.8 35.3
13:20 1023 30.21 853 25.19 14.1 57.3 45 2.5 36.4
13:25 1023 30.21 852 25.16 13.8 56.9 48 3 37.5
13:30 1023 30.21 852 25.16 13.9 57 45 2.2 36
13:35 1023 30.21 852 25.16 14.3 57.8 44 2.3 36.2
13:40 1023 30.21 852 25.16 14.6 58.2 44 2.4 36.3
13:45 1023 30.21 852 25.16 15 58.9 41 2 35.5
13:50 1023 30.21 852 25.16 15.1 59.1 39 1.4 34.5
13:55 1023 30.21 852 25.16 14.5 58.1 42 1.7 35
14:00 1023 30.21 852 25.16 15 58.9 39 1.1 33.9
14:05 1023 30.21 852 25.16 15.6 60 39 1.7 35.1
14:10 1023 30.21 852 25.16 15.4 59.8 39 1.7 35.1
14:15 1023 30.21 852 25.16 15.5 59.9 41 2.3 36.1
14:20 1023 30.21 852 25.16 14.5 58.2 43 2.3 36.1
14:25 1023 30.21 852 25.16 13.2 55.7 47 2.1 35.8
14:30 1023 30.21 852 25.16 13.2 55.7 45 1.7 35
14:35 1023 30.21 852 25.16 14.3 57.7 42 1.5 34.7
14:40 1022 30.18 852 25.16 14.1 57.3 44 2.1 35.8
14:45 1022 30.18 852 25.16 14.2 57.6 41 1.1 34
14:50 1022 30.18 852 25.16 15.1 59.2 39 1.4 34.5
14:55 1022 30.18 852 25.16 15.6 60 37 1.1 34
15:00 1022 30.18 851 25.13 15.6 60.1 39 1.8 35.2
15:05 1022 30.18 851 25.13 15.5 59.9 39 1.9 35.3
15:10 1022 30.18 851 25.13 15.3 59.5 41 2.1 35.8
15:15 1022 30.18 851 25.13 15.2 59.3 39 1.5 34.7
15:20 1022 30.18 851 25.13 15.8 60.4 39 1.8 35.3
15:25 1022 30.18 851 25.13 15.5 59.9 42 2.7 36.9
15:30 1022 30.18 851 25.13 15.3 59.5 40 2 35.6
15:35 1022 30.18 851 25.13 15.2 59.3 41 2.1 35.7
15:40 1022 30.18 851 25.13 15.4 59.6 40 2 35.5
15:45 1022 30.18 851 25.13 15.2 59.4 41 2.2 36
15:50 1022 30.18 851 25.13 15 59 41 2.1 35.8
15:55 1022 30.18 851 25.13 15.1 59.3 40 1.6 34.9
16:00 1022 30.18 851 25.13 14.6 58.2 42 1.8 35.2
16:05 1022 30.18 851 25.13 14.4 58 42 1.7 35
16:10 1022 30.18 851 25.13 14.8 58.7 40 1.6 34.9
16:15 1021 30.15 851 25.13 15.2 59.3 38 1.1 34
16:20 1021 30.15 851 25.13 15 59 39 1.1 34
16:25 1021 30.15 850 25.1 15 58.9 40 1.7 35
16:30 1021 30.15 850 25.1 14.7 58.5 43 2.3 36.1
16:35 1021 30.15 850 25.1 14.5 58.1 42 1.8 35.3
16:40 1021 30.15 850 25.1 14.7 58.4 42 1.9 35.4
16:45 1021 30.15 850 25.1 14.7 58.4 41 1.7 35.1
16:50 1021 30.15 850 25.1 14.6 58.2 42 1.9 35.4
16:55 1021 30.15 850 25.1 14.3 57.8 42 1.7 35
17:00 1021 30.15 850 25.1 14.2 57.6 42 1.7 35
17:05 1021 30.15 850 25.1 14.2 57.6 42 1.7 35.1
17:10 1021 30.15 850 25.1 14 57.3 44 2.1 35.8
17:15 1021 30.15 850 25.1 13.7 56.6 46 2.2 36
17:20 1021 30.15 850 25.1 13.3 56 46 2 35.6
17:25 1021 30.15 850 25.1 13.2 55.7 48 2.5 36.5
17:30 1021 30.15 850 25.1 12.8 55 51 2.9 37.2
17:35 1021 30.15 850 25.1 12 53.7 58 4.1 39.4
17:40 1021 30.15 850 25.1 11.2 52.1 62 4.2 39.6
17:45 1021 30.15 850 25.1 10.5 51 64 4 39.2
17:50 1021 30.15 850 25.1 10.1 50.2 65 3.9 39
17:55 1021 30.15 850 25.1 9.7 49.4 66 3.7 38.6
18:00 1021 30.15 850 25.1 9.4 48.9 66 3.5 38.3
18:05 1021 30.15 850 25.1 9.2 48.6 69 3.7 38.7
18:10 1021 30.15 850 25.1 8.8 47.8 69 3.4 38.2
18:15 1021 30.15 850 25.1 8.3 46.9 70 3.2 37.8
18:20 1021 30.15 850 25.1 8 46.4 71 3 37.5
18:25 1021 30.15 850 25.1 7.8 46 70 2.6 36.7
18:30 1021 30.15 850 25.1 7.6 45.7 69 2.3 36.2
18:35 1021 30.15 850 25.1 7.6 45.7 68 2.2 35.9
18:40 1021 30.15 850 25.1 7.5 45.4 71 2.6 36.8
18:45 1021 30.15 850 25.1 7.4 45.4 70 2.3 36.2
18:50 1021 30.15 850 25.1 7.8 46 67 1.9 35.5
18:55 1021 30.15 850 25.1 7.7 45.8 68 2.1 35.8
19:00 1021 30.15 850 25.1 7.5 45.6 67 1.9 35.4
19:05 1021 30.15 850 25.1 7.4 45.3 68 2 35.6
19:10 1021 30.15 850 25.1 7.3 45.1 70 2.1 35.7
19:15 1021 30.15 850 25.1 7.1 44.8 71 2.2 35.9
19:20 1021 30.15 850 25.1 6.9 44.4 69 1.5 34.7
19:25 1021 30.15 850 25.1 7.1 44.7 70 1.9 35.5
19:30 1021 30.15 850 25.1 7.1 44.8 70 2.1 35.8
19:35 1021 30.15 850 25.1 7.1 44.7 70 2 35.7
19:40 1021 30.15 850 25.1 7.1 44.7 71 2.2 35.9
19:45 1021 30.15 850 25.1 7.1 44.7 70 2.1 35.7
19:50 1021 30.15 850 25.1 7 44.6 69 1.7 35
19:55 1021 30.15 850 25.1 7.1 44.7 70 1.9 35.4
20:00 1021 30.15 850 25.1 6.9 44.5 70 1.9 35.4
20:05 1021 30.15 850 25.1 6.8 44.3 70 1.7 35.1
20:10 1021 30.15 850 25.1 6.7 44 71 1.9 35.4
20:15 1021 30.15 850 25.1 6.4 43.6 72 1.8 35.2
20:20 1021 30.15 850 25.1 6.4 43.5 72 1.8 35.2
20:25 1021 30.15 850 25.1 6.4 43.6 72 1.8 35.2
20:30 1021 30.15 850 25.1 6.4 43.5 73 1.9 35.4
20:35 1021 30.15 850 25.1 6.3 43.3 73 1.9 35.4
20:40 1021 30.15 850 25.1 6 42.8 74 1.7 35.1
20:45 1020 30.12 850 25.1 6 42.9 74 1.7 35.1
20:50 1020 30.12 850 25.1 6 42.8 74 1.7 35
20:55 1021 30.15 850 25.1 6.2 43.2 72 1.6 34.9
21:00 1021 30.15 850 25.1 6.3 43.4 73 1.8 35.2
21:05 1021 30.15 850 25.1 6.2 43.1 73 1.8 35.2
21:10 1021 30.15 850 25.1 6.1 43.1 73 1.7 35.1
21:15 1021 30.15 850 25.1 6.2 43.2 73 1.7 35.1
21:20 1021 30.15 850 25.1 6.3 43.3 74 1.9 35.4
21:25 1021 30.15 850 25.1 6 42.8 74 1.8 35.2
21:30 1021 30.15 850 25.1 5.8 42.5 75 1.6 35
21:35 1021 30.15 850 25.1 5.8 42.5 74 1.5 34.8
21:40 1021 30.15 850 25.1 5.9 42.6 74 1.5 34.7
21:45 1021 30.15 850 25.1 5.7 42.3 74 1.6 34.8
21:50 1021 30.15 850 25.1 5.6 42.1 75 1.5 34.7
21:55 1021 30.15 850 25.1 5.7 42.2 74 1.4 34.4
22:00 1021 30.15 850 25.1 5.7 42.3 74 1.5 34.6
22:05 1021 30.15 850 25.1 5.8 42.4 74 1.5 34.6
22:10 1021 30.15 850 25.1 6.1 43 73 1.6 34.9
22:15 1021 30.15 850 25.1 6.1 43 73 1.7 35
22:20 1021 30.15 850 25.1 6.2 43.2 73 1.8 35.2
22:25 1021 30.15 850 25.1 6 42.9 74 1.8 35.2
22:30 1021 30.15 850 25.1 6.1 42.9 74 1.8 35.3
22:35 1021 30.15 850 25.1 6 42.8 74 1.7 35.1
22:40 1021 30.15 850 25.1 6 42.8 74 1.8 35.2
22:45 1021 30.15 850 25.1 5.9 42.6 74 1.6 34.9
22:50 1021 30.15 850 25.1 6.2 43.2 72 1.6 34.8
22:55 1021 30.15 850 25.1 6.4 43.5 72 1.7 35
23:00 1021 30.15 850 25.1 6.3 43.4 73 1.8 35.2
23:05 1021 30.15 850 25.1 6.1 43 74 1.7 35.1
23:10 1021 30.15 850 25.1 5.9 42.7 74 1.7 35
23:15 1021 30.15 850 25.1 5.9 42.7 74 1.7 35.1
23:20 1021 30.15 850 25.1 6.1 42.9 73 1.6 34.8
23:25 1021 30.15 850 25.1 5.9 42.6 74 1.7 35
23:30 1021 30.15 850 25.1 5.6 42 75 1.4 34.6
23:35 1021 30.15 850 25.1 5.6 42.1 75 1.5 34.6
23:40 1020 30.12 850 25.1 5.3 41.6 76 1.5 34.7
23:45 1020 30.12 850 25.1 4.8 40.6 78 1.3 34.3
23:50 1020 30.12 850 25.1 4.6 40.3 79 1.3 34.3
23:55 1020 30.12 850 25.1 4.8 40.6 77 1.2 34.1
24:00 1020 30.12 850 25.1 4.9 40.9 77 1.3 34.4